sensor_id;sensor_type;location;lat;lon;timestamp;temperature;humidity
59651;DHT22;45954;49.768;8.636;2022-12-07T00:01:25;5.10;99.90
59651;DHT22;45954;49.768;8.636;2022-12-07T00:03:57;5.30;99.90
59651;DHT22;45954;49.768;8.636;2022-12-07T00:06:35;5.30;99.90
59651;DHT22;45954;49.768;8.636;2022-12-07T00:09:04;5.20;99.90
59651;DHT22;45954;49.768;8.636;2022-12-07T00:11:31;5.20;99.90
59651;DHT22;45954;49.768;8.636;2022-12-07T00:13:59;5.30;99.90
59651;DHT22;45954;49.768;8.636;2022-12-07T00:16:29;5.20;99.90
59651;DHT22;45954;49.768;8.636;2022-12-07T00:18:56;5.10;99.90
59651;DHT22;45954;49.768;8.636;2022-12-07T00:21:24;5.20;99.90
59651;DHT22;45954;49.768;8.636;2022-12-07T00:23:53;5.30;99.90
59651;DHT22;45954;49.768;8.636;2022-12-07T00:26:22;5.30;99.90
59651;DHT22;45954;49.768;8.636;2022-12-07T00:28:55;5.30;99.90
59651;DHT22;45954;49.768;8.636;2022-12-07T00:31:24;5.30;99.90
59651;DHT22;45954;49.768;8.636;2022-12-07T00:33:51;5.30;99.90
59651;DHT22;45954;49.768;8.636;2022-12-07T00:36:20;5.40;99.90
59651;DHT22;45954;49.768;8.636;2022-12-07T00:38:48;5.40;99.90
59651;DHT22;45954;49.768;8.636;2022-12-07T00:41:20;5.40;99.90
59651;DHT22;45954;49.768;8.636;2022-12-07T00:43:49;5.50;99.90
59651;DHT22;45954;49.768;8.636;2022-12-07T00:46:16;5.50;99.90
59651;DHT22;45954;49.768;8.636;2022-12-07T00:48:43;5.40;99.90
59651;DHT22;45954;49.768;8.636;2022-12-07T00:51:11;5.50;99.90
59651;DHT22;45954;49.768;8.636;2022-12-07T00:53:39;5.40;99.90
59651;DHT22;45954;49.768;8.636;2022-12-07T00:56:16;5.20;99.90
59651;DHT22;45954;49.768;8.636;2022-12-07T00:58:57;5.10;99.90
59651;DHT22;45954;49.768;8.636;2022-12-07T01:01:27;5.10;99.90
59651;DHT22;45954;49.768;8.636;2022-12-07T01:03:55;5.20;99.90
59651;DHT22;45954;49.768;8.636;2022-12-07T01:06:23;5.20;99.90
59651;DHT22;45954;49.768;8.636;2022-12-07T01:08:50;5.30;99.90
59651;DHT22;45954;49.768;8.636;2022-12-07T01:11:18;5.50;99.90
59651;DHT22;45954;49.768;8.636;2022-12-07T01:13:46;5.50;99.90
59651;DHT22;45954;49.768;8.636;2022-12-07T01:16:15;5.50;99.90
59651;DHT22;45954;49.768;8.636;2022-12-07T01:18:42;5.40;99.90
59651;DHT22;45954;49.768;8.636;2022-12-07T01:21:14;5.20;99.90
59651;DHT22;45954;49.768;8.636;2022-12-07T01:23:43;5.30;99.90
59651;DHT22;45954;49.768;8.636;2022-12-07T01:26:15;5.40;99.90
59651;DHT22;45954;49.768;8.636;2022-12-07T01:28:43;5.50;99.90
59651;DHT22;45954;49.768;8.636;2022-12-07T01:31:15;5.40;99.90
59651;DHT22;45954;49.768;8.636;2022-12-07T01:33:45;5.40;99.90
59651;DHT22;45954;49.768;8.636;2022-12-07T01:36:18;5.40;99.90
59651;DHT22;45954;49.768;8.636;2022-12-07T01:39:06;5.40;99.90
59651;DHT22;45954;49.768;8.636;2022-12-07T01:41:36;5.40;99.90
59651;DHT22;45954;49.768;8.636;2022-12-07T01:44:19;5.40;99.90
59651;DHT22;45954;49.768;8.636;2022-12-07T01:49:43;5.30;99.90
59651;DHT22;45954;49.768;8.636;2022-12-07T01:52:18;5.20;99.90
59651;DHT22;45954;49.768;8.636;2022-12-07T01:55:03;5.30;99.90
59651;DHT22;45954;49.768;8.636;2022-12-07T01:57:35;5.30;99.90
59651;DHT22;45954;49.768;8.636;2022-12-07T02:00:06;5.30;99.90
59651;DHT22;45954;49.768;8.636;2022-12-07T02:02:41;5.30;99.90
59651;DHT22;45954;49.768;8.636;2022-12-07T02:05:10;5.40;99.90
59651;DHT22;45954;49.768;8.636;2022-12-07T02:07:38;5.30;99.90
59651;DHT22;45954;49.768;8.636;2022-12-07T02:10:16;5.20;99.90
59651;DHT22;45954;49.768;8.636;2022-12-07T02:12:50;5.10;99.90
59651;DHT22;45954;49.768;8.636;2022-12-07T02:15:21;4.90;99.90
59651;DHT22;45954;49.768;8.636;2022-12-07T02:18:13;4.70;99.90
59651;DHT22;45954;49.768;8.636;2022-12-07T02:27:16;5.10;99.90
59651;DHT22;45954;49.768;8.636;2022-12-07T02:33:05;5.30;99.90
59651;DHT22;45954;49.768;8.636;2022-12-07T02:35:51;5.60;99.90
59651;DHT22;45954;49.768;8.636;2022-12-07T02:38:45;5.60;99.90
59651;DHT22;45954;49.768;8.636;2022-12-07T02:41:33;5.50;99.90
59651;DHT22;45954;49.768;8.636;2022-12-07T02:44:10;5.30;99.90
59651;DHT22;45954;49.768;8.636;2022-12-07T02:46:43;4.90;99.90
59651;DHT22;45954;49.768;8.636;2022-12-07T02:49:11;5.00;99.90
59651;DHT22;45954;49.768;8.636;2022-12-07T02:51:45;4.80;99.90
59651;DHT22;45954;49.768;8.636;2022-12-07T02:54:14;5.00;99.90
59651;DHT22;45954;49.768;8.636;2022-12-07T03:04:49;5.40;99.90
59651;DHT22;45954;49.768;8.636;2022-12-07T03:07:24;5.30;99.90
59651;DHT22;45954;49.768;8.636;2022-12-07T03:13:24;5.10;99.90
59651;DHT22;45954;49.768;8.636;2022-12-07T03:19:01;5.20;99.90
59651;DHT22;45954;49.768;8.636;2022-12-07T03:21:49;5.20;99.90
59651;DHT22;45954;49.768;8.636;2022-12-07T03:24:45;5.30;99.90
59651;DHT22;45954;49.768;8.636;2022-12-07T03:28:03;5.20;99.90
59651;DHT22;45954;49.768;8.636;2022-12-07T03:30:15;5.30;99.90
59651;DHT22;45954;49.768;8.636;2022-12-07T03:35:42;5.20;99.90
59651;DHT22;45954;49.768;8.636;2022-12-07T03:41:27;5.00;99.90
59651;DHT22;45954;49.768;8.636;2022-12-07T03:43:56;5.00;99.90
59651;DHT22;45954;49.768;8.636;2022-12-07T03:49:00;5.30;99.90
59651;DHT22;45954;49.768;8.636;2022-12-07T03:51:46;5.40;99.90
59651;DHT22;45954;49.768;8.636;2022-12-07T03:54:34;5.40;99.90
59651;DHT22;45954;49.768;8.636;2022-12-07T03:57:04;5.20;99.90
59651;DHT22;45954;49.768;8.636;2022-12-07T03:59:31;5.20;99.90
59651;DHT22;45954;49.768;8.636;2022-12-07T04:02:03;5.30;99.90
59651;DHT22;45954;49.768;8.636;2022-12-07T04:04:31;5.30;99.90
59651;DHT22;45954;49.768;8.636;2022-12-07T04:06:57;5.10;99.90
59651;DHT22;45954;49.768;8.636;2022-12-07T04:09:23;5.10;99.90
59651;DHT22;45954;49.768;8.636;2022-12-07T04:11:49;5.00;99.90
59651;DHT22;45954;49.768;8.636;2022-12-07T04:14:15;5.30;99.90
59651;DHT22;45954;49.768;8.636;2022-12-07T04:16:45;5.50;99.90
59651;DHT22;45954;49.768;8.636;2022-12-07T04:19:11;5.40;99.90
59651;DHT22;45954;49.768;8.636;2022-12-07T04:21:38;5.30;99.90
59651;DHT22;45954;49.768;8.636;2022-12-07T04:24:04;5.30;99.90
59651;DHT22;45954;49.768;8.636;2022-12-07T04:26:30;5.30;99.90
59651;DHT22;45954;49.768;8.636;2022-12-07T04:28:56;5.50;99.90
59651;DHT22;45954;49.768;8.636;2022-12-07T04:31:22;5.60;99.90
59651;DHT22;45954;49.768;8.636;2022-12-07T04:33:48;5.40;99.90
59651;DHT22;45954;49.768;8.636;2022-12-07T04:36:14;5.30;99.90
59651;DHT22;45954;49.768;8.636;2022-12-07T04:38:40;5.10;99.90
59651;DHT22;45954;49.768;8.636;2022-12-07T04:41:07;5.30;99.90
59651;DHT22;45954;49.768;8.636;2022-12-07T04:43:34;5.40;99.90
59651;DHT22;45954;49.768;8.636;2022-12-07T04:46:00;5.30;99.90
59651;DHT22;45954;49.768;8.636;2022-12-07T04:48:27;5.20;99.90
59651;DHT22;45954;49.768;8.636;2022-12-07T04:50:53;5.10;99.90
59651;DHT22;45954;49.768;8.636;2022-12-07T04:53:19;5.10;99.90
59651;DHT22;45954;49.768;8.636;2022-12-07T04:55:45;5.10;99.90
59651;DHT22;45954;49.768;8.636;2022-12-07T04:58:12;4.90;99.90
59651;DHT22;45954;49.768;8.636;2022-12-07T05:00:39;5.10;99.90
59651;DHT22;45954;49.768;8.636;2022-12-07T05:03:05;5.20;99.90
59651;DHT22;45954;49.768;8.636;2022-12-07T05:05:32;5.20;99.90
59651;DHT22;45954;49.768;8.636;2022-12-07T05:07:58;5.30;99.90
59651;DHT22;45954;49.768;8.636;2022-12-07T05:10:23;5.20;99.90
59651;DHT22;45954;49.768;8.636;2022-12-07T05:12:49;5.20;99.90
59651;DHT22;45954;49.768;8.636;2022-12-07T05:15:15;5.20;99.90
59651;DHT22;45954;49.768;8.636;2022-12-07T05:17:42;5.40;99.90
59651;DHT22;45954;49.768;8.636;2022-12-07T05:20:08;5.40;99.90
59651;DHT22;45954;49.768;8.636;2022-12-07T05:22:35;5.40;99.90
59651;DHT22;45954;49.768;8.636;2022-12-07T05:25:01;5.30;99.90
59651;DHT22;45954;49.768;8.636;2022-12-07T05:27:27;4.90;99.90
59651;DHT22;45954;49.768;8.636;2022-12-07T05:29:53;4.80;99.90
59651;DHT22;45954;49.768;8.636;2022-12-07T05:32:18;4.50;99.90
59651;DHT22;45954;49.768;8.636;2022-12-07T05:34:44;4.50;99.90
59651;DHT22;45954;49.768;8.636;2022-12-07T05:37:10;4.50;99.90
59651;DHT22;45954;49.768;8.636;2022-12-07T05:39:36;4.70;99.90
59651;DHT22;45954;49.768;8.636;2022-12-07T05:42:06;4.80;99.90
59651;DHT22;45954;49.768;8.636;2022-12-07T05:44:45;5.00;99.90
59651;DHT22;45954;49.768;8.636;2022-12-07T05:47:14;5.10;99.90
59651;DHT22;45954;49.768;8.636;2022-12-07T05:49:40;5.20;99.90
59651;DHT22;45954;49.768;8.636;2022-12-07T05:52:06;5.40;99.90
59651;DHT22;45954;49.768;8.636;2022-12-07T05:54:33;5.50;99.90
59651;DHT22;45954;49.768;8.636;2022-12-07T05:56:59;5.50;99.90
59651;DHT22;45954;49.768;8.636;2022-12-07T05:59:25;5.30;99.90
59651;DHT22;45954;49.768;8.636;2022-12-07T06:02:05;5.50;99.90
59651;DHT22;45954;49.768;8.636;2022-12-07T06:04:36;5.20;99.90
59651;DHT22;45954;49.768;8.636;2022-12-07T06:07:04;4.70;99.90
59651;DHT22;45954;49.768;8.636;2022-12-07T06:09:31;4.80;99.90
59651;DHT22;45954;49.768;8.636;2022-12-07T06:11:58;4.90;99.90
59651;DHT22;45954;49.768;8.636;2022-12-07T06:14:43;5.10;99.90
59651;DHT22;45954;49.768;8.636;2022-12-07T06:17:10;5.00;99.90
59651;DHT22;45954;49.768;8.636;2022-12-07T06:19:38;5.00;99.90
59651;DHT22;45954;49.768;8.636;2022-12-07T06:22:05;5.10;99.90
59651;DHT22;45954;49.768;8.636;2022-12-07T06:24:32;5.30;99.90
59651;DHT22;45954;49.768;8.636;2022-12-07T06:26:59;5.10;99.90
59651;DHT22;45954;49.768;8.636;2022-12-07T06:29:25;5.10;99.90
59651;DHT22;45954;49.768;8.636;2022-12-07T06:31:51;5.20;99.90
59651;DHT22;45954;49.768;8.636;2022-12-07T06:34:19;5.30;99.90
59651;DHT22;45954;49.768;8.636;2022-12-07T06:36:47;5.30;99.90
59651;DHT22;45954;49.768;8.636;2022-12-07T06:39:20;5.20;99.90
59651;DHT22;45954;49.768;8.636;2022-12-07T06:41:49;5.30;99.90
59651;DHT22;45954;49.768;8.636;2022-12-07T06:44:15;5.30;99.90
59651;DHT22;45954;49.768;8.636;2022-12-07T06:46:41;5.20;99.90
59651;DHT22;45954;49.768;8.636;2022-12-07T06:49:07;5.20;99.90
59651;DHT22;45954;49.768;8.636;2022-12-07T06:51:33;5.20;99.90
59651;DHT22;45954;49.768;8.636;2022-12-07T06:54:04;5.10;99.90
59651;DHT22;45954;49.768;8.636;2022-12-07T06:56:30;5.10;99.90
59651;DHT22;45954;49.768;8.636;2022-12-07T06:58:56;5.20;99.90
59651;DHT22;45954;49.768;8.636;2022-12-07T07:01:22;5.20;99.90
59651;DHT22;45954;49.768;8.636;2022-12-07T07:03:48;5.10;99.90
59651;DHT22;45954;49.768;8.636;2022-12-07T07:06:14;5.00;99.90
59651;DHT22;45954;49.768;8.636;2022-12-07T07:08:40;5.00;99.90
59651;DHT22;45954;49.768;8.636;2022-12-07T07:11:08;5.00;99.90
59651;DHT22;45954;49.768;8.636;2022-12-07T07:13:34;5.10;99.90
59651;DHT22;45954;49.768;8.636;2022-12-07T07:16:01;5.10;99.90
59651;DHT22;45954;49.768;8.636;2022-12-07T07:18:28;5.10;99.90
59651;DHT22;45954;49.768;8.636;2022-12-07T07:20:54;5.30;99.90
59651;DHT22;45954;49.768;8.636;2022-12-07T07:23:21;5.20;99.90
59651;DHT22;45954;49.768;8.636;2022-12-07T07:25:48;5.10;99.90
59651;DHT22;45954;49.768;8.636;2022-12-07T07:28:15;5.00;99.90
59651;DHT22;45954;49.768;8.636;2022-12-07T07:30:41;5.00;99.90
59651;DHT22;45954;49.768;8.636;2022-12-07T07:33:08;5.20;99.90
59651;DHT22;45954;49.768;8.636;2022-12-07T07:35:35;5.30;99.90
59651;DHT22;45954;49.768;8.636;2022-12-07T07:38:02;5.30;99.90
59651;DHT22;45954;49.768;8.636;2022-12-07T07:40:28;5.20;99.90
59651;DHT22;45954;49.768;8.636;2022-12-07T07:42:55;5.20;99.90
59651;DHT22;45954;49.768;8.636;2022-12-07T07:45:22;5.20;99.90
59651;DHT22;45954;49.768;8.636;2022-12-07T07:47:50;5.20;99.90
59651;DHT22;45954;49.768;8.636;2022-12-07T07:50:17;5.20;99.90
59651;DHT22;45954;49.768;8.636;2022-12-07T07:52:44;5.20;99.90
59651;DHT22;45954;49.768;8.636;2022-12-07T07:55:11;5.20;99.90
59651;DHT22;45954;49.768;8.636;2022-12-07T07:57:39;5.30;99.90
59651;DHT22;45954;49.768;8.636;2022-12-07T08:00:09;5.30;99.90
59651;DHT22;45954;49.768;8.636;2022-12-07T08:02:36;5.20;99.90
59651;DHT22;45954;49.768;8.636;2022-12-07T08:05:02;5.20;99.90
59651;DHT22;45954;49.768;8.636;2022-12-07T08:07:28;5.10;99.90
59651;DHT22;45954;49.768;8.636;2022-12-07T08:09:54;5.30;99.90
59651;DHT22;45954;49.768;8.636;2022-12-07T08:12:20;5.30;99.90
59651;DHT22;45954;49.768;8.636;2022-12-07T08:14:46;5.30;99.90
59651;DHT22;45954;49.768;8.636;2022-12-07T08:17:12;5.30;99.90
59651;DHT22;45954;49.768;8.636;2022-12-07T08:19:38;5.20;99.90
59651;DHT22;45954;49.768;8.636;2022-12-07T08:22:05;5.20;99.90
59651;DHT22;45954;49.768;8.636;2022-12-07T08:24:33;5.40;99.90
59651;DHT22;45954;49.768;8.636;2022-12-07T08:26:59;5.30;99.90
59651;DHT22;45954;49.768;8.636;2022-12-07T08:29:26;5.20;99.90
59651;DHT22;45954;49.768;8.636;2022-12-07T08:31:51;5.20;99.90
59651;DHT22;45954;49.768;8.636;2022-12-07T08:34:17;5.00;99.90
59651;DHT22;45954;49.768;8.636;2022-12-07T08:36:43;4.90;99.90
59651;DHT22;45954;49.768;8.636;2022-12-07T08:39:09;5.00;99.90
59651;DHT22;45954;49.768;8.636;2022-12-07T08:41:35;5.10;99.90
59651;DHT22;45954;49.768;8.636;2022-12-07T08:44:01;5.20;99.90
59651;DHT22;45954;49.768;8.636;2022-12-07T08:46:47;5.30;99.90
59651;DHT22;45954;49.768;8.636;2022-12-07T08:49:27;5.50;99.90
59651;DHT22;45954;49.768;8.636;2022-12-07T08:51:57;5.30;99.90
59651;DHT22;45954;49.768;8.636;2022-12-07T08:54:23;5.10;99.90
59651;DHT22;45954;49.768;8.636;2022-12-07T08:56:50;5.10;99.90
59651;DHT22;45954;49.768;8.636;2022-12-07T08:59:19;5.20;99.90
59651;DHT22;45954;49.768;8.636;2022-12-07T09:01:46;5.10;99.90
59651;DHT22;45954;49.768;8.636;2022-12-07T09:04:11;5.20;99.90
59651;DHT22;45954;49.768;8.636;2022-12-07T09:06:38;5.20;99.90
59651;DHT22;45954;49.768;8.636;2022-12-07T09:09:04;5.30;99.90
59651;DHT22;45954;49.768;8.636;2022-12-07T09:11:30;5.50;99.90
59651;DHT22;45954;49.768;8.636;2022-12-07T09:13:56;5.50;99.90
59651;DHT22;45954;49.768;8.636;2022-12-07T09:16:22;5.30;99.90
59651;DHT22;45954;49.768;8.636;2022-12-07T09:18:48;5.30;99.90
59651;DHT22;45954;49.768;8.636;2022-12-07T09:21:14;5.40;99.90
59651;DHT22;45954;49.768;8.636;2022-12-07T09:23:41;5.10;99.90
59651;DHT22;45954;49.768;8.636;2022-12-07T09:26:08;5.10;99.90
59651;DHT22;45954;49.768;8.636;2022-12-07T09:28:34;5.40;99.90
59651;DHT22;45954;49.768;8.636;2022-12-07T09:31:00;5.50;99.90
59651;DHT22;45954;49.768;8.636;2022-12-07T09:33:26;5.40;99.90
59651;DHT22;45954;49.768;8.636;2022-12-07T09:35:52;5.50;99.90
59651;DHT22;45954;49.768;8.636;2022-12-07T09:38:19;5.80;99.90
59651;DHT22;45954;49.768;8.636;2022-12-07T09:40:46;5.80;99.90
59651;DHT22;45954;49.768;8.636;2022-12-07T09:43:22;5.80;99.90
59651;DHT22;45954;49.768;8.636;2022-12-07T09:45:55;5.90;99.90
59651;DHT22;45954;49.768;8.636;2022-12-07T09:48:34;5.70;99.90
59651;DHT22;45954;49.768;8.636;2022-12-07T09:51:16;5.80;99.90
59651;DHT22;45954;49.768;8.636;2022-12-07T09:53:45;5.90;99.90
59651;DHT22;45954;49.768;8.636;2022-12-07T09:56:16;5.90;99.90
59651;DHT22;45954;49.768;8.636;2022-12-07T09:58:43;6.00;99.90
59651;DHT22;45954;49.768;8.636;2022-12-07T10:01:20;6.10;99.90
59651;DHT22;45954;49.768;8.636;2022-12-07T10:03:58;6.20;99.90
59651;DHT22;45954;49.768;8.636;2022-12-07T10:06:27;5.90;99.90
59651;DHT22;45954;49.768;8.636;2022-12-07T10:08:52;5.90;99.90
59651;DHT22;45954;49.768;8.636;2022-12-07T10:11:18;5.90;99.90
59651;DHT22;45954;49.768;8.636;2022-12-07T10:13:52;5.90;99.90
59651;DHT22;45954;49.768;8.636;2022-12-07T10:18:50;6.10;99.90
59651;DHT22;45954;49.768;8.636;2022-12-07T10:21:26;5.90;99.90
59651;DHT22;45954;49.768;8.636;2022-12-07T10:24:01;5.90;99.90
59651;DHT22;45954;49.768;8.636;2022-12-07T10:26:51;5.80;99.90
59651;DHT22;45954;49.768;8.636;2022-12-07T10:29:33;5.80;99.90
59651;DHT22;45954;49.768;8.636;2022-12-07T10:32:08;6.20;99.90
59651;DHT22;45954;49.768;8.636;2022-12-07T10:35:24;6.10;99.90
59651;DHT22;45954;49.768;8.636;2022-12-07T10:37:57;6.20;99.90
59651;DHT22;45954;49.768;8.636;2022-12-07T10:40:36;6.20;99.90
59651;DHT22;45954;49.768;8.636;2022-12-07T10:46:06;6.20;99.90
59651;DHT22;45954;49.768;8.636;2022-12-07T10:54:44;6.10;99.90
59651;DHT22;45954;49.768;8.636;2022-12-07T10:57:47;6.30;99.90
59651;DHT22;45954;49.768;8.636;2022-12-07T11:00:24;6.20;99.90
59651;DHT22;45954;49.768;8.636;2022-12-07T11:09:39;6.40;99.90
59651;DHT22;45954;49.768;8.636;2022-12-07T11:15:26;6.20;99.90
59651;DHT22;45954;49.768;8.636;2022-12-07T11:18:24;6.40;99.90
59651;DHT22;45954;49.768;8.636;2022-12-07T11:23:55;6.50;99.90
59651;DHT22;45954;49.768;8.636;2022-12-07T11:26:57;6.40;99.90
59651;DHT22;45954;49.768;8.636;2022-12-07T11:33:02;6.40;99.90
59651;DHT22;45954;49.768;8.636;2022-12-07T11:35:46;6.50;99.90
59651;DHT22;45954;49.768;8.636;2022-12-07T11:38:54;6.50;99.90
59651;DHT22;45954;49.768;8.636;2022-12-07T11:41:34;6.50;99.90
59651;DHT22;45954;49.768;8.636;2022-12-07T11:44:27;6.60;99.90
59651;DHT22;45954;49.768;8.636;2022-12-07T11:47:05;6.50;99.90
59651;DHT22;45954;49.768;8.636;2022-12-07T11:49:37;6.70;99.90
59651;DHT22;45954;49.768;8.636;2022-12-07T11:52:20;6.90;99.90
59651;DHT22;45954;49.768;8.636;2022-12-07T11:54:53;6.80;99.90
59651;DHT22;45954;49.768;8.636;2022-12-07T11:57:44;6.70;99.90
59651;DHT22;45954;49.768;8.636;2022-12-07T12:00:18;6.80;99.90
59651;DHT22;45954;49.768;8.636;2022-12-07T12:02:59;6.70;99.90
59651;DHT22;45954;49.768;8.636;2022-12-07T12:05:28;6.70;99.90
59651;DHT22;45954;49.768;8.636;2022-12-07T12:08:16;6.40;99.90
59651;DHT22;45954;49.768;8.636;2022-12-07T12:11:00;6.50;99.90
59651;DHT22;45954;49.768;8.636;2022-12-07T12:14:09;6.50;99.90
59651;DHT22;45954;49.768;8.636;2022-12-07T12:23:20;6.50;99.90
59651;DHT22;45954;49.768;8.636;2022-12-07T12:25:46;6.60;99.90
59651;DHT22;45954;49.768;8.636;2022-12-07T12:31:06;6.60;99.90
59651;DHT22;45954;49.768;8.636;2022-12-07T12:33:35;6.60;99.90
59651;DHT22;45954;49.768;8.636;2022-12-07T12:47:00;6.60;99.90
59651;DHT22;45954;49.768;8.636;2022-12-07T12:49:39;6.70;99.90
59651;DHT22;45954;49.768;8.636;2022-12-07T12:57:37;6.70;99.90
59651;DHT22;45954;49.768;8.636;2022-12-07T13:02:54;6.80;99.90
59651;DHT22;45954;49.768;8.636;2022-12-07T13:05:26;6.90;99.90
59651;DHT22;45954;49.768;8.636;2022-12-07T13:08:18;7.00;99.90
59651;DHT22;45954;49.768;8.636;2022-12-07T13:10:47;7.00;99.90
59651;DHT22;45954;49.768;8.636;2022-12-07T13:13:30;6.80;99.90
59651;DHT22;45954;49.768;8.636;2022-12-07T13:18:38;6.90;99.90
59651;DHT22;45954;49.768;8.636;2022-12-07T13:31:42;6.90;99.90
59651;DHT22;45954;49.768;8.636;2022-12-07T13:34:30;6.70;99.90
59651;DHT22;45954;49.768;8.636;2022-12-07T13:37:00;6.80;99.90
59651;DHT22;45954;49.768;8.636;2022-12-07T13:39:28;6.80;99.90
59651;DHT22;45954;49.768;8.636;2022-12-07T13:41:57;6.80;99.90
59651;DHT22;45954;49.768;8.636;2022-12-07T13:44:26;6.80;99.90
59651;DHT22;45954;49.768;8.636;2022-12-07T13:49:59;6.80;99.90
59651;DHT22;45954;49.768;8.636;2022-12-07T13:52:28;6.80;99.90
59651;DHT22;45954;49.768;8.636;2022-12-07T13:55:14;6.90;99.90
59651;DHT22;45954;49.768;8.636;2022-12-07T13:57:42;7.20;99.90
59651;DHT22;45954;49.768;8.636;2022-12-07T14:00:17;7.20;99.90
59651;DHT22;45954;49.768;8.636;2022-12-07T14:03:03;7.20;99.90
59651;DHT22;45954;49.768;8.636;2022-12-07T14:05:44;7.20;99.90
59651;DHT22;45954;49.768;8.636;2022-12-07T14:10:55;7.50;99.90
59651;DHT22;45954;49.768;8.636;2022-12-07T14:16:34;7.50;99.90
59651;DHT22;45954;49.768;8.636;2022-12-07T14:19:06;7.30;99.90
59651;DHT22;45954;49.768;8.636;2022-12-07T14:22:09;7.40;99.90
59651;DHT22;45954;49.768;8.636;2022-12-07T14:25:02;7.30;99.90
59651;DHT22;45954;49.768;8.636;2022-12-07T14:27:37;7.40;99.90
59651;DHT22;45954;49.768;8.636;2022-12-07T14:30:05;7.30;99.90
59651;DHT22;45954;49.768;8.636;2022-12-07T14:32:32;7.40;99.90
59651;DHT22;45954;49.768;8.636;2022-12-07T14:35:09;7.50;99.90
59651;DHT22;45954;49.768;8.636;2022-12-07T14:37:39;7.40;99.90
59651;DHT22;45954;49.768;8.636;2022-12-07T14:40:06;7.20;99.90
59651;DHT22;45954;49.768;8.636;2022-12-07T14:42:34;7.20;99.90
59651;DHT22;45954;49.768;8.636;2022-12-07T14:45:05;7.10;99.90
59651;DHT22;45954;49.768;8.636;2022-12-07T14:47:32;7.00;99.90
59651;DHT22;45954;49.768;8.636;2022-12-07T14:49:57;7.10;99.90
59651;DHT22;45954;49.768;8.636;2022-12-07T14:52:27;7.00;99.90
59651;DHT22;45954;49.768;8.636;2022-12-07T14:54:54;6.80;99.90
59651;DHT22;45954;49.768;8.636;2022-12-07T14:57:20;7.00;99.90
59651;DHT22;45954;49.768;8.636;2022-12-07T14:59:45;6.90;99.90
59651;DHT22;45954;49.768;8.636;2022-12-07T15:02:13;6.80;99.90
59651;DHT22;45954;49.768;8.636;2022-12-07T15:04:40;6.80;99.90
59651;DHT22;45954;49.768;8.636;2022-12-07T15:07:18;6.90;99.90
59651;DHT22;45954;49.768;8.636;2022-12-07T15:09:46;6.80;99.90
59651;DHT22;45954;49.768;8.636;2022-12-07T15:12:13;6.80;99.90
59651;DHT22;45954;49.768;8.636;2022-12-07T15:14:39;6.70;99.90
59651;DHT22;45954;49.768;8.636;2022-12-07T15:17:04;6.80;99.90
59651;DHT22;45954;49.768;8.636;2022-12-07T15:19:30;6.90;99.90
59651;DHT22;45954;49.768;8.636;2022-12-07T15:21:58;6.90;99.90
59651;DHT22;45954;49.768;8.636;2022-12-07T15:24:26;6.90;99.90
59651;DHT22;45954;49.768;8.636;2022-12-07T15:26:52;6.80;99.90
59651;DHT22;45954;49.768;8.636;2022-12-07T15:29:18;6.80;99.90
59651;DHT22;45954;49.768;8.636;2022-12-07T15:31:44;6.80;99.90
59651;DHT22;45954;49.768;8.636;2022-12-07T15:34:11;6.60;99.90
59651;DHT22;45954;49.768;8.636;2022-12-07T15:36:37;6.70;99.90
59651;DHT22;45954;49.768;8.636;2022-12-07T15:39:03;6.70;99.90
59651;DHT22;45954;49.768;8.636;2022-12-07T15:41:29;6.70;99.90
59651;DHT22;45954;49.768;8.636;2022-12-07T15:43:55;6.60;99.90
59651;DHT22;45954;49.768;8.636;2022-12-07T15:46:40;6.60;99.90
59651;DHT22;45954;49.768;8.636;2022-12-07T15:49:13;6.50;99.90
59651;DHT22;45954;49.768;8.636;2022-12-07T15:51:42;6.50;99.90
59651;DHT22;45954;49.768;8.636;2022-12-07T15:54:20;6.40;99.90
59651;DHT22;45954;49.768;8.636;2022-12-07T15:56:47;6.50;99.90
59651;DHT22;45954;49.768;8.636;2022-12-07T15:59:14;6.50;99.90
59651;DHT22;45954;49.768;8.636;2022-12-07T16:01:41;6.40;99.90
59651;DHT22;45954;49.768;8.636;2022-12-07T16:04:07;6.50;99.90
59651;DHT22;45954;49.768;8.636;2022-12-07T16:06:32;6.40;99.90
59651;DHT22;45954;49.768;8.636;2022-12-07T16:08:58;6.50;99.90
59651;DHT22;45954;49.768;8.636;2022-12-07T16:11:24;6.40;99.90
59651;DHT22;45954;49.768;8.636;2022-12-07T16:13:51;6.20;99.90
59651;DHT22;45954;49.768;8.636;2022-12-07T16:16:18;6.40;99.90
59651;DHT22;45954;49.768;8.636;2022-12-07T16:18:48;6.40;99.90
59651;DHT22;45954;49.768;8.636;2022-12-07T16:21:15;6.40;99.90
59651;DHT22;45954;49.768;8.636;2022-12-07T16:23:43;6.60;99.90
59651;DHT22;45954;49.768;8.636;2022-12-07T16:26:13;6.40;99.90
59651;DHT22;45954;49.768;8.636;2022-12-07T16:28:42;6.40;99.90
59651;DHT22;45954;49.768;8.636;2022-12-07T16:31:12;6.30;99.90
59651;DHT22;45954;49.768;8.636;2022-12-07T16:33:41;6.40;99.90
59651;DHT22;45954;49.768;8.636;2022-12-07T16:36:10;6.50;99.90
59651;DHT22;45954;49.768;8.636;2022-12-07T16:38:37;6.50;99.90
59651;DHT22;45954;49.768;8.636;2022-12-07T16:41:04;6.30;99.90
59651;DHT22;45954;49.768;8.636;2022-12-07T16:43:32;6.30;99.90
59651;DHT22;45954;49.768;8.636;2022-12-07T16:45:58;6.40;99.90
59651;DHT22;45954;49.768;8.636;2022-12-07T16:48:24;6.10;99.90
59651;DHT22;45954;49.768;8.636;2022-12-07T16:50:50;6.20;99.90
59651;DHT22;45954;49.768;8.636;2022-12-07T16:53:21;6.50;99.90
59651;DHT22;45954;49.768;8.636;2022-12-07T16:55:49;6.40;99.90
59651;DHT22;45954;49.768;8.636;2022-12-07T16:58:16;6.50;99.90
59651;DHT22;45954;49.768;8.636;2022-12-07T17:00:43;6.50;99.90
59651;DHT22;45954;49.768;8.636;2022-12-07T17:03:10;6.30;99.90
59651;DHT22;45954;49.768;8.636;2022-12-07T17:05:39;6.40;99.90
59651;DHT22;45954;49.768;8.636;2022-12-07T17:08:06;6.30;99.90
59651;DHT22;45954;49.768;8.636;2022-12-07T17:10:36;6.40;99.90
59651;DHT22;45954;49.768;8.636;2022-12-07T17:13:04;6.50;99.90
59651;DHT22;45954;49.768;8.636;2022-12-07T17:16:05;6.30;99.90
59651;DHT22;45954;49.768;8.636;2022-12-07T17:18:34;6.20;99.90
59651;DHT22;45954;49.768;8.636;2022-12-07T17:21:06;6.30;99.90
59651;DHT22;45954;49.768;8.636;2022-12-07T17:23:35;6.50;99.90
59651;DHT22;45954;49.768;8.636;2022-12-07T17:26:16;6.50;99.90
59651;DHT22;45954;49.768;8.636;2022-12-07T17:28:44;6.60;99.90
59651;DHT22;45954;49.768;8.636;2022-12-07T17:31:12;6.50;99.90
59651;DHT22;45954;49.768;8.636;2022-12-07T17:33:40;6.60;99.90
59651;DHT22;45954;49.768;8.636;2022-12-07T17:36:23;6.50;99.90
59651;DHT22;45954;49.768;8.636;2022-12-07T17:38:51;6.40;99.90
59651;DHT22;45954;49.768;8.636;2022-12-07T17:44:13;6.40;99.90
59651;DHT22;45954;49.768;8.636;2022-12-07T17:46:41;6.40;99.90
59651;DHT22;45954;49.768;8.636;2022-12-07T17:49:08;6.40;99.90
59651;DHT22;45954;49.768;8.636;2022-12-07T17:51:34;6.40;99.90
59651;DHT22;45954;49.768;8.636;2022-12-07T17:54:19;6.30;99.90
59651;DHT22;45954;49.768;8.636;2022-12-07T17:56:46;6.40;99.90
59651;DHT22;45954;49.768;8.636;2022-12-07T17:59:13;6.60;99.90
59651;DHT22;45954;49.768;8.636;2022-12-07T18:01:40;6.60;99.90
59651;DHT22;45954;49.768;8.636;2022-12-07T18:04:07;6.40;99.90
59651;DHT22;45954;49.768;8.636;2022-12-07T18:06:33;6.20;99.90